Time;durP1;ratioP1;P1;durP2;ratioP2;P2;SDS_P1;SDS_P2;PMS_P1;PMS_P2;Temp;Humidity;BMP_temperature;BMP_pressure;BME280_temperature;BME280_humidity;BME280_pressure;Samples;Min_cycle;Max_cycle;Signal;HPM_P1;HPM_P2
2022/05/06 12:01:46;;;;;;;5.32;4.82;;;;;;;39.23;18.81;102416.19;5378594;27;20423;-82
2022/05/06 12:04:17;;;;;;;4.75;3.92;;;;;;;41.76;17.70;102416.78;5352495;27;20514;-83
2022/05/06 12:06:49;;;;;;;5.40;4.90;;;;;;;41.91;18.08;102409.97;5364101;27;20014;-83
2022/05/06 12:09:21;;;;;;;5.93;5.30;;;;;;;41.48;18.14;102405.69;5363170;27;20024;-83
2022/05/06 12:12:05;;;;;;;7.82;6.13;;;;;;;42.62;18.36;102398.00;5358527;27;20020;-81
2022/05/06 12:14:38;;;;;;;5.80;5.40;;;;;;;40.68;18.44;102402.34;5344752;27;20077;-80
2022/05/06 12:17:12;;;;;;;7.38;4.90;;;;;;;40.13;18.49;102405.88;5350338;27;20034;-80
2022/05/06 12:19:45;;;;;;;8.00;4.57;;;;;;;40.30;18.98;102393.28;5344531;27;20035;-80
2022/05/06 12:22:24;;;;;;;7.85;4.32;;;;;;;40.86;18.84;102406.19;5345929;27;20494;-80
2022/05/06 12:24:58;;;;;;;5.15;4.32;;;;;;;40.33;18.73;102395.47;5354170;27;20566;-80
2022/05/06 12:27:37;;;;;;;5.10;4.60;;;;;;;40.41;18.14;102395.63;5362782;27;20019;-83
2022/05/06 12:30:15;;;;;;;5.35;4.50;;;;;;;41.10;18.37;102394.78;5363134;27;20047;-80
2022/05/06 12:33:09;;;;;;;5.88;4.93;;;;;;;41.26;18.43;102392.47;5363301;27;20063;-80
2022/05/06 12:35:55;;;;;;;4.53;4.10;;;;;;;40.67;18.75;102385.88;5363024;27;20589;-82
2022/05/06 12:38:48;;;;;;;5.93;4.53;;;;;;;41.62;17.39;102379.59;5340371;27;20024;-82
2022/05/06 12:41:22;;;;;;;6.43;4.68;;;;;;;41.30;18.37;102385.09;5361184;27;20487;-81
2022/05/06 12:43:57;;;;;;;6.55;5.80;;;;;;;40.20;18.64;102377.53;5363010;27;20065;-82
2022/05/06 12:46:33;;;;;;;7.88;5.90;;;;;;;39.16;18.82;102382.25;5361784;27;20066;-81
2022/05/06 12:51:54;;;;;;;7.00;6.40;;;;;;;39.84;18.07;102384.56;5343302;27;20035;-81
2022/05/06 12:54:26;;;;;;;9.20;6.30;;;;;;;40.62;18.45;102382.06;5360629;27;20425;-81
2022/05/06 12:56:58;;;;;;;7.30;6.70;;;;;;;40.17;18.03;102376.19;5343384;27;20338;-81
2022/05/06 12:59:29;;;;;;;6.90;6.35;;;;;;;40.44;17.88;102374.59;5340995;27;20123;-81
2022/05/06 13:02:00;;;;;;;7.13;6.30;;;;;;;41.05;17.84;102378.09;5355917;27;20024;-82
2022/05/06 13:04:32;;;;;;;7.27;6.53;;;;;;;40.05;17.71;102379.47;5361647;27;20356;-82
2022/05/06 13:07:03;;;;;;;8.23;6.07;;;;;;;40.51;17.77;102376.97;5341664;27;20335;-81
2022/05/06 13:09:35;;;;;;;10.05;7.10;;;;;;;40.10;17.96;102360.97;5342617;27;20109;-81
2022/05/06 13:12:08;;;;;;;15.85;7.95;;;;;;;39.50;18.47;102363.34;5343748;27;20024;-81
2022/05/06 13:14:40;;;;;;;11.57;7.05;;;;;;;38.51;18.81;102364.88;5341550;27;20035;-81
2022/05/06 13:17:11;;;;;;;7.18;6.53;;;;;;;38.61;19.19;102366.75;5335958;27;20511;-82
2022/05/06 13:19:42;;;;;;;8.30;7.37;;;;;;;39.66;18.40;102368.69;5343016;27;20035;-81
2022/05/06 13:22:14;;;;;;;11.23;7.33;;;;;;;39.99;17.90;102361.16;5334063;27;20335;-81
2022/05/06 13:24:45;;;;;;;8.65;7.03;;;;;;;39.83;18.22;102357.75;5331920;27;20290;-81
2022/05/06 13:27:16;;;;;;;8.63;7.00;;;;;;;37.85;18.41;102344.06;5326990;27;20376;-81
2022/05/06 13:29:48;;;;;;;8.68;7.10;;;;;;;38.01;19.44;102358.69;5333896;27;20366;-81
2022/05/06 13:32:19;;;;;;;8.27;7.47;;;;;;;36.47;20.75;102352.03;5347960;27;20110;-81
2022/05/06 13:34:50;;;;;;;13.63;7.30;;;;;;;37.86;19.16;102351.31;5332869;27;20118;-81
2022/05/06 13:37:21;;;;;;;9.45;7.70;;;;;;;38.18;18.80;102344.34;5346319;27;20295;-81
2022/05/06 13:39:54;;;;;;;7.32;6.63;;;;;;;36.36;19.83;102344.00;5347086;27;20420;-81
2022/05/06 13:42:25;;;;;;;9.20;8.20;;;;;;;34.52;21.58;102348.88;5348027;27;20117;-81
2022/05/06 13:44:56;;;;;;;10.52;7.70;;;;;;;35.75;21.24;102337.38;5346614;27;20399;-81
2022/05/06 13:47:28;;;;;;;11.30;9.90;;;;;;;32.01;24.47;102346.78;5327986;27;20024;-81
2022/05/06 13:49:59;;;;;;;14.85;9.65;;;;;;;33.39;24.03;102341.53;5339241;27;20027;-81
2022/05/06 13:52:31;;;;;;;10.50;9.45;;;;;;;32.12;25.28;102336.78;5348881;27;20487;-81
2022/05/06 13:55:04;;;;;;;11.02;8.98;;;;;;;34.57;23.23;102343.34;5332206;27;20495;-81
2022/05/06 14:00:26;;;;;;;25.23;9.40;;;;;;;34.43;23.53;102334.69;5337204;27;20044;-81
2022/05/06 14:02:58;;;;;;;10.75;8.23;;;;;;;34.28;23.00;102329.88;5325059;28;20027;-81
2022/05/06 14:05:29;;;;;;;12.75;8.50;;;;;;;34.21;22.89;102320.97;5325906;28;20028;-81
2022/05/06 14:08:01;;;;;;;13.43;8.32;;;;;;;34.70;22.46;102325.44;5306613;28;20058;-81
2022/05/06 14:10:32;;;;;;;10.45;8.00;;;;;;;35.05;23.03;102323.91;5326568;27;20102;-81
2022/05/06 14:13:03;;;;;;;10.40;7.95;;;;;;;34.94;22.03;102325.81;5306202;28;20444;-81
2022/05/06 14:15:35;;;;;;;9.63;7.82;;;;;;;34.06;22.54;102324.44;5322416;28;20028;-81
2022/05/06 14:18:07;;;;;;;8.93;8.02;;;;;;;34.09;23.16;102315.59;5307463;28;20121;-81
2022/05/06 14:20:38;;;;;;;9.88;8.38;;;;;;;32.87;24.33;102312.44;5292197;28;20028;-81
2022/05/06 14:23:11;;;;;;;16.23;9.35;;;;;;;32.39;25.64;102323.13;5304864;28;20491;-81
2022/05/06 14:25:46;;;;;;;12.77;9.48;;;;;;;31.40;26.58;102310.66;5326346;28;20107;-81
2022/05/06 14:28:17;;;;;;;8.93;7.97;;;;;;;30.73;26.45;102323.09;5325347;28;20054;-81
2022/05/06 14:30:48;;;;;;;17.35;10.23;;;;;;;30.76;27.27;102316.28;5326853;28;20052;-81
2022/05/06 14:33:20;;;;;;;16.02;9.63;;;;;;;30.29;27.89;102309.69;5318179;28;20032;-81
2022/05/06 14:35:51;;;;;;;10.52;8.30;;;;;;;29.58;28.51;102315.09;5325124;28;20040;-81
2022/05/06 14:38:22;;;;;;;9.43;8.38;;;;;;;29.79;27.88;102316.50;5327364;27;20020;-81
2022/05/06 14:40:54;;;;;;;10.52;9.13;;;;;;;28.92;29.06;102302.25;5347350;27;20047;-81
2022/05/06 14:43:25;;;;;;;11.73;8.10;;;;;;;29.27;29.55;102301.63;5324562;27;20039;-82
2022/05/06 14:45:57;;;;;;;10.80;9.30;;;;;;;29.36;29.41;102297.47;5326412;28;20311;-82
2022/05/06 14:48:28;;;;;;;13.60;9.47;;;;;;;29.54;29.07;102289.16;5306773;28;20024;-81
2022/05/06 14:51:00;;;;;;;12.50;9.20;;;;;;;28.52;30.15;102298.03;5326112;28;20281;-81
2022/05/06 14:53:40;;;;;;;10.52;9.43;;;;;;;27.94;31.41;102279.19;5316555;27;20108;-81
2022/05/06 14:56:11;;;;;;;11.25;8.55;;;;;;;28.15;31.49;102288.91;5325340;28;20094;-81
2022/05/06 14:58:43;;;;;;;9.00;8.10;;;;;;;28.66;31.14;102274.91;5323995;27;20032;-81
2022/05/06 15:01:14;;;;;;;11.38;7.72;;;;;;;28.36;31.18;102285.75;5326613;27;20131;-80
2022/05/06 15:03:46;;;;;;;11.18;8.50;;;;;;;28.74;30.35;102276.50;5306589;27;20043;-80
2022/05/06 15:06:17;;;;;;;8.20;7.00;;;;;;;29.14;30.65;102272.41;5314723;28;20086;-80
2022/05/06 15:08:48;;;;;;;10.35;8.40;;;;;;;28.98;30.76;102277.47;5315398;27;20687;-79
2022/05/06 15:11:20;;;;;;;9.95;8.23;;;;;;;28.47;31.01;102273.16;5309934;28;20036;-80
2022/05/06 15:13:52;;;;;;;14.02;9.10;;;;;;;28.01;32.34;102263.53;5317362;28;20126;-81
2022/05/06 15:16:23;;;;;;;11.27;7.80;;;;;;;28.61;30.78;102258.28;5305283;28;20021;-81
2022/05/06 15:21:44;;;;;;;16.42;7.63;;;;;;;27.84;32.18;102257.72;5325295;28;20036;-80
2022/05/06 15:24:16;;;;;;;8.63;7.72;;;;;;;28.15;31.84;102256.84;5280994;27;20082;-81
2022/05/06 15:26:47;;;;;;;8.88;7.20;;;;;;;28.12;31.89;102259.19;5325857;28;20044;-81
2022/05/06 15:29:18;;;;;;;12.02;7.28;;;;;;;28.07;31.70;102259.88;5313424;27;20396;-81
2022/05/06 15:31:50;;;;;;;9.20;5.78;;;;;;;26.85;33.01;102249.06;5311900;27;20027;-80
2022/05/06 15:34:22;;;;;;;11.10;5.93;;;;;;;27.51;32.32;102250.63;5313902;27;20089;-81
2022/05/06 15:36:54;;;;;;;6.90;6.13;;;;;;;26.76;33.04;102251.22;5315850;27;20111;-81
2022/05/06 15:39:25;;;;;;;7.53;6.03;;;;;;;27.15;32.32;102252.06;5320890;27;20540;-81
2022/05/06 15:41:57;;;;;;;10.82;6.60;;;;;;;25.65;33.97;102250.91;5298557;27;20059;-81
2022/05/06 15:44:28;;;;;;;7.20;5.82;;;;;;;26.42;34.26;102248.56;5320979;27;20373;-81
2022/05/06 15:47:02;;;;;;;10.73;7.07;;;;;;;26.39;35.12;102256.34;5317970;28;20103;-81
2022/05/06 15:49:35;;;;;;;9.70;7.70;;;;;;;26.03;35.72;102254.94;5318232;28;20028;-81
2022/05/06 15:52:06;;;;;;;8.88;7.20;;;;;;;25.71;36.29;102253.88;5317035;27;20027;-81
2022/05/06 15:54:37;;;;;;;11.18;7.53;;;;;;;25.83;35.63;102252.19;5311688;28;20012;-81
2022/05/06 15:57:11;;;;;;;8.25;6.78;;;;;;;25.98;36.12;102255.59;5284144;28;20067;-81
2022/05/06 15:59:43;;;;;;;6.60;6.00;;;;;;;25.76;36.11;102254.91;5307619;27;20059;-81
2022/05/06 16:02:14;;;;;;;7.38;5.60;;;;;;;25.64;37.01;102248.41;5313369;27;20024;-81
2022/05/06 16:04:46;;;;;;;6.93;6.13;;;;;;;25.83;36.31;102246.72;5315063;28;20020;-81
2022/05/06 16:07:17;;;;;;;7.10;6.40;;;;;;;25.47;37.71;102246.06;5317148;28;20627;-81
2022/05/06 16:09:49;;;;;;;7.73;6.43;;;;;;;25.17;37.97;102244.72;5318437;28;20083;-81
2022/05/06 16:12:23;;;;;;;11.18;6.88;;;;;;;24.90;38.54;102242.75;5314826;28;20320;-81
2022/05/06 16:17:46;;;;;;;7.18;5.88;;;;;;;24.83;40.29;102235.59;5323024;28;20052;-81
2022/05/06 16:20:20;;;;;;;9.43;6.90;;;;;;;24.50;42.09;102245.25;5321428;27;20407;-81
2022/05/06 16:22:52;;;;;;;6.80;6.05;;;;;;;24.74;41.60;102224.00;5305046;28;20030;-81
2022/05/06 16:25:24;;;;;;;7.07;6.32;;;;;;;25.10;40.83;102239.22;5316390;28;20017;-81
2022/05/06 16:27:59;;;;;;;7.82;7.07;;;;;;;24.73;42.10;102239.50;5322820;28;20028;-81
2022/05/06 16:30:33;;;;;;;10.43;7.90;;;;;;;24.56;43.43;102234.59;5317490;28;20032;-81
2022/05/06 16:33:06;;;;;;;9.10;7.50;;;;;;;24.64;43.42;102229.81;5310165;28;20032;-81
2022/05/06 16:38:26;;;;;;;8.68;6.90;;;;;;;24.45;43.12;102230.53;5322012;28;20036;-81
2022/05/06 16:40:58;;;;;;;9.20;6.43;;;;;;;24.33;45.02;102233.84;5319773;28;20094;-81
2022/05/06 16:43:30;;;;;;;7.85;7.13;;;;;;;23.82;46.84;102230.53;5310958;28;20050;-81
2022/05/06 16:46:02;;;;;;;7.53;6.80;;;;;;;23.60;51.44;102228.63;5316748;28;20087;-81
2022/05/06 16:48:33;;;;;;;8.30;6.95;;;;;;;23.35;51.61;102214.59;5324949;28;20051;-81
2022/05/06 16:51:04;;;;;;;13.98;8.23;;;;;;;22.94;56.75;102223.31;5326979;28;20031;-81
2022/05/06 16:53:35;;;;;;;10.38;6.90;;;;;;;23.08;55.99;102226.22;5317021;28;20047;-81
2022/05/06 16:56:07;;;;;;;13.25;7.63;;;;;;;22.77;59.03;102224.56;5304928;28;20425;-81
2022/05/06 16:58:38;;;;;;;8.90;7.88;;;;;;;22.53;61.87;102223.84;5325966;28;20048;-81
2022/05/06 17:01:10;;;;;;;22.88;8.43;;;;;;;22.34;64.73;102227.97;5318930;27;20059;-81
2022/05/06 17:03:41;;;;;;;41.47;9.70;;;;;;;22.31;66.04;102220.19;5323298;28;20032;-81
2022/05/06 17:06:12;;;;;;;18.65;8.90;;;;;;;22.16;69.56;102224.72;5327103;28;20281;-80
2022/05/06 17:08:43;;;;;;;11.57;9.00;;;;;;;22.23;69.42;102215.66;5330807;28;20404;-81
2022/05/06 17:11:15;;;;;;;9.55;8.13;;;;;;;22.28;72.49;102218.69;5320444;28;20275;-80
2022/05/06 17:13:49;;;;;;;12.15;8.45;;;;;;;22.49;68.14;102206.22;5318715;28;20499;-81
2022/05/06 17:16:20;;;;;;;14.95;8.00;;;;;;;22.45;70.19;102230.22;5297658;28;20184;-81
2022/05/06 17:18:52;;;;;;;10.65;8.35;;;;;;;22.37;69.47;102218.59;5326576;28;20583;-81
2022/05/06 17:21:23;;;;;;;14.73;8.25;;;;;;;22.55;69.55;102221.78;5327499;28;20404;-81
2022/05/06 17:24:06;;;;;;;13.45;9.70;;;;;;;22.49;70.62;102227.13;5316421;28;20475;-82
2022/05/06 17:26:38;;;;;;;16.95;9.77;;;;;;;22.20;74.46;102232.34;5320473;28;20016;-81
2022/05/06 17:29:09;;;;;;;14.38;10.20;;;;;;;21.97;74.52;102220.72;5322765;28;20081;-81
2022/05/06 17:31:44;;;;;;;26.05;8.85;;;;;;;21.99;79.57;102218.66;5307500;28;20036;-80
2022/05/06 17:34:15;;;;;;;13.13;9.80;;;;;;;21.76;81.90;102224.13;5328177;28;20376;-81
2022/05/06 17:36:47;;;;;;;17.70;10.18;;;;;;;21.78;84.47;102227.50;5327416;28;20050;-81
2022/05/06 17:39:21;;;;;;;13.77;10.27;;;;;;;21.70;84.92;102226.53;5329963;28;20112;-81
2022/05/06 17:41:58;;;;;;;14.43;11.80;;;;;;;21.44;89.11;102218.75;5311390;28;20041;-81
2022/05/06 17:44:33;;;;;;;18.63;12.32;;;;;;;21.30;91.59;102225.78;5302606;28;20033;-82
2022/05/06 17:47:06;;;;;;;17.67;11.45;;;;;;;21.28;93.96;102216.13;5307796;28;20055;-81
2022/05/06 17:49:44;;;;;;;24.60;12.10;;;;;;;21.09;93.85;102231.88;5314631;28;20029;-80
2022/05/06 17:52:27;;;;;;;17.23;12.68;;;;;;;20.86;94.48;102210.13;5299825;28;20577;-81
2022/05/06 17:55:16;;;;;;;20.05;11.88;;;;;;;20.70;97.08;102213.75;5300350;28;20091;-81
2022/05/06 17:57:48;;;;;;;17.55;11.23;;;;;;;20.83;96.94;102240.31;5300089;28;20032;-81
2022/05/06 18:03:09;;;;;;;15.32;11.20;;;;;;;20.50;99.62;102217.88;5308095;28;20598;-81
2022/05/06 18:06:01;;;;;;;19.20;11.95;;;;;;;20.32;99.62;102216.25;5317481;28;20110;-81
2022/05/06 18:08:38;;;;;;;23.65;11.93;;;;;;;20.18;100.00;102231.34;5318757;28;20414;-81
2022/05/06 18:11:11;;;;;;;16.98;11.35;;;;;;;20.14;100.00;102238.13;5312986;28;20104;-80
2022/05/06 18:13:43;;;;;;;17.70;12.43;;;;;;;19.90;100.00;102230.88;5294388;28;20028;-82
2022/05/06 18:16:16;;;;;;;14.80;12.30;;;;;;;19.62;100.00;102219.53;5306979;28;20048;-81
2022/05/06 18:18:50;;;;;;;12.45;9.90;;;;;;;19.60;100.00;102240.47;5316663;28;20024;-81
2022/05/06 18:21:21;;;;;;;15.32;12.60;;;;;;;19.45;100.00;102238.44;5322477;28;20050;-81
2022/05/06 18:23:53;;;;;;;13.63;11.70;;;;;;;19.33;100.00;102220.00;5320251;28;20020;-81
2022/05/06 18:26:24;;;;;;;18.15;12.48;;;;;;;19.19;100.00;102241.25;5315750;28;20028;-81
2022/05/06 18:29:18;;;;;;;17.67;12.98;;;;;;;19.06;100.00;102239.03;5322014;28;20039;-81
2022/05/06 18:34:42;;;;;;;18.70;14.00;;;;;;;18.87;100.00;102236.63;5299008;28;20048;-81
2022/05/06 18:37:16;;;;;;;17.45;13.30;;;;;;;18.56;100.00;102237.09;5318696;28;20054;-81
2022/05/06 18:39:48;;;;;;;18.38;12.50;;;;;;;18.46;100.00;102241.78;5318950;28;20060;-81
2022/05/06 18:42:19;;;;;;;24.25;13.77;;;;;;;18.27;100.00;102237.47;5315948;28;20059;-81
2022/05/06 18:44:51;;;;;;;21.50;13.32;;;;;;;18.16;100.00;102243.97;5318665;28;20597;-80
2022/05/06 18:47:25;;;;;;;20.67;12.65;;;;;;;18.03;100.00;102240.84;5316666;28;20024;-81
2022/05/06 18:49:58;;;;;;;14.13;11.73;;;;;;;17.90;100.00;102238.53;5312768;28;20024;-82
2022/05/06 18:52:30;;;;;;;21.92;13.57;;;;;;;17.71;100.00;102253.06;5323066;28;20541;-81
2022/05/06 18:55:02;;;;;;;18.67;10.25;;;;;;;17.49;100.00;102222.00;5282856;28;20036;-81
2022/05/06 18:57:34;;;;;;;24.35;12.95;;;;;;;17.44;100.00;102243.19;5319009;28;20444;-81
2022/05/06 19:00:07;;;;;;;18.10;11.35;;;;;;;17.35;100.00;102251.19;5314391;28;20044;-81
2022/05/06 19:02:38;;;;;;;16.92;12.07;;;;;;;17.20;100.00;102247.34;5297177;28;20101;-81
2022/05/06 19:05:10;;;;;;;12.10;10.80;;;;;;;17.10;100.00;102246.53;5315052;28;20151;-81
2022/05/06 19:07:41;;;;;;;17.33;12.57;;;;;;;16.91;100.00;102245.66;5319792;28;20044;-81
2022/05/06 19:10:13;;;;;;;13.77;12.32;;;;;;;16.78;100.00;102247.81;5313440;28;20104;-80
2022/05/06 19:12:44;;;;;;;11.25;9.48;;;;;;;16.69;100.00;102246.00;5323095;28;20092;-81
2022/05/06 19:15:16;;;;;;;14.05;12.38;;;;;;;16.54;100.00;102251.88;5318477;28;36569;-81
2022/05/06 19:17:58;;;;;;;23.20;16.02;;;;;;;16.39;100.00;102253.34;5312750;28;20020;-80
2022/05/06 19:20:31;;;;;;;24.38;19.55;;;;;;;16.25;100.00;102255.53;5322364;28;20082;-80
2022/05/06 19:25:53;;;;;;;17.95;12.73;;;;;;;16.01;100.00;102263.22;5312228;28;20465;-80
2022/05/06 19:28:24;;;;;;;17.10;10.68;;;;;;;15.88;100.00;102258.97;5316241;27;20082;-80
2022/05/06 19:30:56;;;;;;;13.40;10.52;;;;;;;15.74;100.00;102271.97;5317408;27;20054;-81
2022/05/06 19:33:27;;;;;;;15.68;11.00;;;;;;;15.61;100.00;102272.25;5317044;27;20032;-80
2022/05/06 19:35:58;;;;;;;23.45;12.75;;;;;;;15.51;100.00;102269.56;5295641;27;20077;-80
2022/05/06 19:38:29;;;;;;;34.13;13.55;;;;;;;15.39;100.00;102276.03;5315629;27;20059;-81
2022/05/06 19:41:01;;;;;;;24.67;10.85;;;;;;;15.28;100.00;102274.34;5324787;28;20056;-81
2022/05/06 19:43:32;;;;;;;30.17;11.23;;;;;;;15.18;100.00;102270.78;5303499;28;20040;-81
2022/05/06 19:46:03;;;;;;;19.98;12.15;;;;;;;15.08;100.00;102282.34;5321946;27;20020;-81
2022/05/06 19:48:35;;;;;;;14.73;9.20;;;;;;;14.95;100.00;102279.03;5311032;27;20054;-81
2022/05/06 19:51:07;;;;;;;23.17;12.63;;;;;;;14.89;100.00;102275.06;5317476;27;20031;-81
2022/05/06 19:53:38;;;;;;;14.15;9.75;;;;;;;14.87;100.00;102274.38;5298511;27;20032;-81
2022/05/06 19:56:12;;;;;;;13.85;9.93;;;;;;;14.73;100.00;102280.94;5317377;27;20041;-81
2022/05/06 19:58:43;;;;;;;12.02;9.25;;;;;;;14.73;100.00;102275.59;5314313;27;20024;-82
2022/05/06 20:01:15;;;;;;;12.50;9.90;;;;;;;14.57;100.00;102269.84;5316585;27;20492;-81
2022/05/06 20:03:46;;;;;;;16.25;13.18;;;;;;;14.50;100.00;102277.56;5317698;27;20024;-81
2022/05/06 20:06:18;;;;;;;13.80;10.85;;;;;;;14.32;100.00;102265.72;5315975;27;20111;-82
2022/05/06 20:08:51;;;;;;;12.95;9.80;;;;;;;14.30;100.00;102268.53;5296637;28;20020;-81
2022/05/06 20:11:23;;;;;;;13.23;9.10;;;;;;;14.28;100.00;102264.28;5312569;27;20029;-81
2022/05/06 20:13:56;;;;;;;11.95;9.48;;;;;;;14.13;100.00;102258.41;5316388;27;20383;-81
2022/05/06 20:16:28;;;;;;;12.55;10.68;;;;;;;14.15;100.00;102262.66;5309626;27;20028;-81
2022/05/06 20:18:59;;;;;;;14.40;11.35;;;;;;;14.00;100.00;102256.75;5291681;27;20046;-81
2022/05/06 20:21:33;;;;;;;13.10;10.05;;;;;;;13.88;100.00;102257.81;5311671;27;21292;-81
2022/05/06 20:24:04;;;;;;;13.27;10.85;;;;;;;13.76;100.00;102250.78;5312601;27;20040;-81
2022/05/06 20:26:36;;;;;;;12.32;10.88;;;;;;;13.77;100.00;102253.34;5316825;27;20475;-81
2022/05/06 20:29:07;;;;;;;15.45;10.60;;;;;;;13.65;100.00;102267.78;5297571;27;20031;-81
2022/05/06 20:31:38;;;;;;;12.50;10.95;;;;;;;13.52;100.00;102259.09;5313439;27;20041;-82
2022/05/06 20:34:13;;;;;;;12.35;11.05;;;;;;;13.47;100.00;102269.31;5318530;27;20017;-83
2022/05/06 20:36:44;;;;;;;15.02;10.95;;;;;;;13.41;100.00;102270.66;5316815;27;20048;-83
2022/05/06 20:39:16;;;;;;;14.93;12.45;;;;;;;13.21;100.00;102264.25;5295524;27;20112;-83
2022/05/06 20:41:47;;;;;;;14.70;12.10;;;;;;;13.10;100.00;102265.13;5294598;27;20055;-82
2022/05/06 20:44:18;;;;;;;13.60;10.45;;;;;;;13.11;100.00;102261.44;5316471;27;20028;-82
2022/05/06 20:46:49;;;;;;;12.80;11.50;;;;;;;13.10;100.00;102267.78;5320008;27;41191;-80
2022/05/06 20:49:21;;;;;;;15.43;10.98;;;;;;;13.02;100.00;102265.72;5322425;27;20560;-81
2022/05/06 20:51:52;;;;;;;15.45;13.10;;;;;;;12.95;100.00;102266.34;5322912;27;20107;-81
2022/05/06 20:54:23;;;;;;;13.48;11.65;;;;;;;12.94;100.00;102268.19;5319753;27;20115;-82
2022/05/06 20:59:44;;;;;;;14.77;12.70;;;;;;;12.76;100.00;102266.97;5323836;27;20158;-81
2022/05/06 21:02:18;;;;;;;17.33;12.25;;;;;;;12.64;100.00;102271.44;5322418;27;20517;-81
2022/05/06 21:04:50;;;;;;;16.10;12.73;;;;;;;12.51;100.00;102268.06;5309013;28;42209;-80
2022/05/06 21:07:23;;;;;;;12.85;10.18;;;;;;;12.42;100.00;102258.91;5325960;28;20028;-81
2022/05/06 21:15:36;;;;;;;15.10;12.60;;;;;;;12.22;100.00;102257.78;5318577;28;20036;-81
2022/05/06 21:18:07;;;;;;;13.27;10.35;;;;;;;12.07;100.00;102254.47;5310268;28;20024;-80
2022/05/06 21:20:39;;;;;;;15.35;13.75;;;;;;;12.05;100.00;102267.13;5300712;28;20055;-80
2022/05/06 21:23:11;;;;;;;15.85;12.25;;;;;;;12.10;100.00;102268.47;5323645;27;20039;-80
2022/05/06 21:25:43;;;;;;;13.63;11.85;;;;;;;11.96;100.00;102273.19;5330371;28;20031;-80
2022/05/06 21:28:14;;;;;;;17.05;13.40;;;;;;;11.94;100.00;102267.06;5308338;28;20108;-80
2022/05/06 21:30:45;;;;;;;20.35;13.77;;;;;;;11.86;100.00;102259.63;5323392;28;20024;-80
2022/05/06 21:33:17;;;;;;;15.95;11.48;;;;;;;11.75;100.00;102257.75;5308194;28;20867;-80
2022/05/06 21:35:48;;;;;;;16.48;13.50;;;;;;;11.80;100.00;102260.94;5328994;28;20035;-81
2022/05/06 21:38:20;;;;;;;15.05;13.32;;;;;;;11.62;100.00;102256.97;5328709;28;20035;-81
2022/05/06 21:40:51;;;;;;;15.63;12.73;;;;;;;11.53;100.00;102254.03;5327558;28;20040;-81
2022/05/06 21:43:22;;;;;;;17.85;14.77;;;;;;;11.56;100.00;102254.75;5327656;28;20120;-81
2022/05/06 21:45:55;;;;;;;19.05;15.18;;;;;;;11.40;100.00;102252.38;5325191;28;20920;-80
2022/05/06 21:48:27;;;;;;;22.70;15.95;;;;;;;11.44;100.00;102254.69;5309524;28;20024;-81
2022/05/06 21:51:00;;;;;;;20.15;15.85;;;;;;;11.27;100.00;102255.94;5329937;28;20027;-81
2022/05/06 21:53:32;;;;;;;20.45;16.42;;;;;;;11.24;100.00;102261.50;5323919;28;20115;-80
2022/05/06 21:56:04;;;;;;;17.40;14.32;;;;;;;11.21;100.00;102258.22;5324709;28;20035;-80
2022/05/06 21:58:35;;;;;;;23.05;17.65;;;;;;;11.24;100.00;102264.19;5319644;27;20575;-80
2022/05/06 22:01:07;;;;;;;24.35;16.92;;;;;;;11.21;100.00;102261.72;5336255;27;20055;-80
2022/05/06 22:03:39;;;;;;;21.55;16.75;;;;;;;11.11;100.00;102250.00;5338641;27;20085;-81
2022/05/06 22:06:11;;;;;;;16.10;13.10;;;;;;;11.11;100.00;102258.00;5340647;27;20525;-80
2022/05/06 22:08:42;;;;;;;20.80;16.60;;;;;;;11.07;100.00;102257.38;5341098;27;20572;-81
2022/05/06 22:11:15;;;;;;;18.25;15.25;;;;;;;11.16;100.00;102254.03;5328122;27;20024;-80
2022/05/06 22:13:46;;;;;;;20.70;16.35;;;;;;;11.28;100.00;102254.97;5340589;27;20027;-80
2022/05/06 22:16:18;;;;;;;25.58;20.75;;;;;;;11.09;100.00;102250.13;5342854;27;20049;-81
2022/05/06 22:18:50;;;;;;;32.58;23.00;;;;;;;11.00;100.00;102250.78;5341574;27;20044;-80
2022/05/06 22:21:21;;;;;;;23.13;17.40;;;;;;;11.35;100.00;102253.56;5332936;27;20043;-81
2022/05/06 22:23:54;;;;;;;26.25;19.73;;;;;;;10.97;100.00;102257.22;5328044;27;20424;-81
2022/05/06 22:26:26;;;;;;;27.73;20.88;;;;;;;11.16;100.00;102245.19;5337871;27;20028;-80
2022/05/06 22:28:57;;;;;;;20.67;16.15;;;;;;;11.37;100.00;102252.59;5335669;27;20038;-80
2022/05/06 22:31:28;;;;;;;23.75;18.13;;;;;;;11.35;100.00;102253.56;5340371;27;20106;-80
2022/05/06 22:36:50;;;;;;;25.67;19.13;;;;;;;11.02;100.00;102258.69;5339816;27;20028;-80
2022/05/06 22:39:21;;;;;;;32.55;21.02;;;;;;;11.09;100.00;102257.28;5340514;27;20030;-80
2022/05/06 22:47:33;;;;;;;20.10;17.75;;;;;;;11.07;100.00;102244.03;5342197;27;20045;-81
2022/05/06 22:50:05;;;;;;;24.45;20.13;;;;;;;11.03;100.00;102253.25;5342913;27;20372;-81
2022/05/06 22:52:36;;;;;;;19.50;14.93;;;;;;;11.06;100.00;102247.69;5337430;27;20051;-80
2022/05/06 22:55:08;;;;;;;13.18;11.10;;;;;;;10.98;100.00;102248.22;5341593;27;20019;-80
2022/05/06 22:57:39;;;;;;;19.25;14.32;;;;;;;10.75;100.00;102244.53;5333526;27;20680;-80
2022/05/06 23:00:13;;;;;;;28.80;19.83;;;;;;;10.80;100.00;102249.56;5329923;27;20044;-80
2022/05/06 23:02:44;;;;;;;20.38;16.08;;;;;;;10.82;100.00;102247.63;5318679;28;20028;-80
2022/05/06 23:05:15;;;;;;;29.30;22.35;;;;;;;10.71;100.00;102242.19;5311797;28;20024;-80
2022/05/06 23:07:47;;;;;;;29.38;23.05;;;;;;;10.66;100.00;102250.53;5311604;28;20730;-80
2022/05/06 23:10:18;;;;;;;22.23;17.42;;;;;;;10.72;100.00;102257.25;5310910;28;20028;-80
2022/05/06 23:12:49;;;;;;;17.05;15.00;;;;;;;10.70;100.00;102253.84;5295571;28;20863;-80
2022/05/06 23:15:21;;;;;;;17.42;15.27;;;;;;;10.73;100.00;102253.63;5315652;28;20028;-80
2022/05/06 23:17:52;;;;;;;15.80;13.65;;;;;;;10.69;100.00;102249.47;5300031;28;20051;-80
2022/05/06 23:20:23;;;;;;;20.15;17.67;;;;;;;10.77;100.00;102239.94;5290199;28;20033;-81
2022/05/06 23:22:55;;;;;;;17.25;15.45;;;;;;;10.80;100.00;102249.56;5312969;28;20059;-81
2022/05/06 23:25:26;;;;;;;16.70;13.85;;;;;;;10.74;100.00;102250.81;5311782;28;20025;-80
2022/05/06 23:27:57;;;;;;;21.23;16.90;;;;;;;10.78;100.00;102243.44;5308599;28;20067;-81
2022/05/06 23:30:29;;;;;;;22.75;17.60;;;;;;;10.84;100.00;102247.53;5306432;28;20028;-81
2022/05/06 23:33:00;;;;;;;23.73;18.13;;;;;;;10.78;100.00;102243.44;5310985;28;40471;-81
2022/05/06 23:37:28;;;;;;;25.42;21.17;;;;;;;10.92;100.00;102237.13;5309685;28;20024;-81
2022/05/06 23:38:22;;;;;;;26.88;18.63;;;;;;;11.03;100.00;102244.38;5314360;28;20024;-81
2022/05/06 23:40:54;;;;;;;19.13;14.57;;;;;;;11.04;100.00;102238.06;5312297;28;20044;-81
2022/05/06 23:43:26;;;;;;;18.88;15.60;;;;;;;10.67;100.00;102238.88;5295932;28;20124;-81
2022/05/06 23:45:58;;;;;;;19.05;15.63;;;;;;;10.80;100.00;102244.22;5310809;28;20028;-81
2022/05/06 23:48:29;;;;;;;27.92;21.27;;;;;;;10.64;100.00;102240.91;5315410;28;20031;-81
2022/05/06 23:51:00;;;;;;;19.38;14.77;;;;;;;10.78;100.00;102246.13;5317107;28;20035;-81
2022/05/06 23:53:32;;;;;;;21.60;17.73;;;;;;;10.70;100.00;102240.50;5314773;28;20028;-81
2022/05/06 23:56:03;;;;;;;16.40;14.18;;;;;;;10.65;100.00;102239.97;5307659;28;20071;-81
2022/05/06 23:58:35;;;;;;;21.05;16.52;;;;;;;10.70;100.00;102240.50;5310155;28;20103;-81
